createdAt,value
2022-08-24T00:01:13.818Z,20.87
2022-08-24T00:03:42.100Z,20.98
2022-08-24T00:06:12.581Z,20.69
2022-08-24T00:08:40.637Z,20.89
2022-08-24T00:11:08.332Z,20.75
2022-08-24T00:13:36.674Z,20.87
2022-08-24T00:16:08.803Z,20.80
2022-08-24T00:18:36.244Z,20.63
2022-08-24T00:21:04.677Z,20.75
2022-08-24T00:23:31.799Z,20.83
2022-08-24T00:25:58.945Z,20.87
2022-08-24T00:28:26.571Z,20.86
2022-08-24T00:30:53.964Z,20.56
2022-08-24T00:33:21.132Z,20.45
2022-08-24T00:35:48.261Z,20.59
2022-08-24T00:38:15.651Z,20.41
2022-08-24T00:40:46.165Z,20.40
2022-08-24T00:43:21.256Z,20.47
2022-08-24T00:46:07.643Z,20.49
2022-08-24T00:48:39.978Z,20.48
2022-08-24T00:51:16.301Z,20.58
2022-08-24T00:53:49.005Z,20.48
2022-08-24T00:56:31.191Z,20.34
2022-08-24T00:59:05.774Z,20.31
2022-08-24T01:01:35.885Z,20.00
2022-08-24T01:04:05.366Z,19.94
2022-08-24T01:06:33.438Z,19.87
2022-08-24T01:09:00.850Z,20.02
2022-08-24T01:11:34.041Z,19.98
2022-08-24T01:14:03.218Z,20.17
2022-08-24T01:16:49.062Z,20.23
2022-08-24T01:19:31.864Z,20.34
2022-08-24T01:22:11.519Z,20.23
2022-08-24T01:24:39.536Z,20.19
2022-08-24T01:27:10.318Z,20.34
2022-08-24T01:29:41.291Z,20.34
2022-08-24T01:32:09.080Z,20.20
2022-08-24T01:34:36.693Z,20.26
2022-08-24T01:37:04.878Z,20.37
2022-08-24T01:39:44.714Z,20.30
2022-08-24T01:42:14.310Z,20.31
2022-08-24T01:44:44.301Z,20.29
2022-08-24T01:47:14.051Z,20.26
2022-08-24T01:49:44.079Z,19.73
2022-08-24T01:52:16.259Z,19.85
2022-08-24T01:54:43.799Z,19.78
2022-08-24T01:57:16.065Z,20.00
2022-08-24T01:59:44.304Z,19.91
2022-08-24T02:02:19.825Z,19.90
2022-08-24T02:04:47.109Z,19.88
2022-08-24T02:07:14.636Z,19.91
2022-08-24T02:09:41.889Z,20.05
2022-08-24T02:12:09.703Z,19.84
2022-08-24T02:14:37.324Z,19.87
2022-08-24T02:17:06.553Z,19.95
2022-08-24T02:19:34.707Z,19.93
2022-08-24T02:22:02.363Z,20.10
2022-08-24T02:24:29.806Z,19.79
2022-08-24T02:26:57.005Z,19.80
2022-08-24T02:29:24.439Z,19.95
2022-08-24T02:31:51.675Z,19.92
2022-08-24T02:34:18.906Z,19.86
2022-08-24T02:36:46.658Z,19.90
2022-08-24T02:39:13.855Z,19.97
2022-08-24T02:41:41.778Z,19.95
2022-08-24T02:44:09.159Z,19.67
2022-08-24T02:46:36.827Z,19.48
2022-08-24T02:49:11.437Z,19.52
2022-08-24T02:51:45.720Z,19.58
2022-08-24T02:54:21.695Z,19.46
2022-08-24T02:56:51.856Z,19.54
2022-08-24T02:59:20.032Z,19.66
2022-08-24T03:01:49.811Z,19.76
2022-08-24T03:04:18.022Z,19.50
2022-08-24T03:06:45.179Z,19.67
2022-08-24T03:09:12.442Z,19.55
2022-08-24T03:11:40.063Z,19.44
2022-08-24T03:14:13.197Z,19.64
2022-08-24T03:16:40.485Z,19.33
2022-08-24T03:19:07.725Z,19.51
2022-08-24T03:21:37.220Z,19.62
2022-08-24T03:24:05.434Z,19.58
2022-08-24T03:26:33.374Z,19.52
2022-08-24T03:29:00.637Z,19.44
2022-08-24T03:31:28.501Z,19.44
2022-08-24T03:33:55.793Z,19.58
2022-08-24T03:36:22.972Z,19.61
2022-08-24T03:38:50.537Z,19.55
2022-08-24T03:41:18.937Z,19.58
2022-08-24T03:43:46.161Z,19.41
2022-08-24T03:46:21.422Z,19.48
2022-08-24T03:48:49.864Z,19.39
2022-08-24T03:51:23.286Z,19.44
2022-08-24T03:53:52.095Z,19.30
2022-08-24T03:56:20.919Z,19.28
2022-08-24T03:58:49.220Z,19.33
2022-08-24T04:01:17.536Z,19.11
2022-08-24T04:03:46.982Z,18.93
2022-08-24T04:06:17.748Z,18.98
2022-08-24T04:08:46.265Z,18.98
2022-08-24T04:11:19.659Z,19.09
2022-08-24T04:13:48.003Z,19.07
2022-08-24T04:16:18.125Z,19.10
2022-08-24T04:18:47.484Z,19.07
2022-08-24T04:21:28.804Z,19.13
2022-08-24T04:23:57.379Z,19.06
2022-08-24T04:26:44.165Z,19.10
2022-08-24T04:29:16.753Z,19.08
2022-08-24T04:31:49.155Z,19.09
2022-08-24T04:34:18.310Z,19.07
2022-08-24T04:36:46.496Z,19.06
2022-08-24T04:39:15.003Z,19.02
2022-08-24T04:42:05.487Z,19.00
2022-08-24T04:44:37.821Z,18.96
2022-08-24T04:47:05.462Z,18.80
2022-08-24T04:49:33.458Z,19.04
2022-08-24T04:52:01.290Z,19.14
2022-08-24T04:54:28.982Z,19.12
2022-08-24T04:57:09.771Z,19.08
2022-08-24T04:59:40.742Z,19.17
2022-08-24T05:02:07.966Z,19.11
2022-08-24T05:04:37.355Z,19.17
2022-08-24T05:07:05.573Z,19.10
2022-08-24T05:09:33.430Z,19.21
2022-08-24T05:12:02.518Z,19.22
2022-08-24T05:14:35.119Z,19.38
2022-08-24T05:17:03.004Z,19.33
2022-08-24T05:19:31.440Z,19.32
2022-08-24T05:22:00.609Z,19.44
2022-08-24T05:24:28.414Z,19.17
2022-08-24T05:26:56.945Z,19.41
2022-08-24T05:29:26.947Z,19.56
2022-08-24T05:31:54.624Z,19.46
2022-08-24T05:34:23.824Z,19.49
2022-08-24T05:36:51.321Z,19.36
2022-08-24T05:39:30.972Z,19.50
2022-08-24T05:41:59.857Z,19.72
2022-08-24T05:44:31.506Z,19.83
2022-08-24T05:47:02.829Z,19.90
2022-08-24T05:49:31.105Z,20.02
2022-08-24T05:51:58.854Z,20.01
2022-08-24T05:54:26.839Z,20.19
2022-08-24T05:57:15.991Z,20.22
2022-08-24T06:00:02.102Z,20.30
2022-08-24T06:02:31.361Z,20.37
2022-08-24T06:04:58.581Z,20.21
2022-08-24T06:07:26.951Z,20.42
2022-08-24T06:10:06.311Z,20.47
2022-08-24T06:12:42.681Z,20.50
2022-08-24T06:15:11.367Z,20.55
2022-08-24T06:17:39.191Z,20.65
2022-08-24T06:20:07.459Z,20.63
2022-08-24T06:22:34.669Z,20.74
2022-08-24T06:25:20.497Z,20.76
2022-08-24T06:27:47.878Z,20.86
2022-08-24T06:30:15.173Z,20.92
2022-08-24T06:33:02.505Z,21.03
2022-08-24T06:35:46.837Z,21.09
2022-08-24T06:38:14.662Z,21.15
2022-08-24T06:40:42.823Z,21.17
2022-08-24T06:43:11.033Z,21.11
2022-08-24T06:46:00.927Z,20.99
2022-08-24T06:48:31.794Z,21.17
2022-08-24T06:51:00.004Z,21.23
2022-08-24T06:53:28.901Z,21.30
2022-08-24T06:55:59.119Z,21.32
2022-08-24T06:58:32.387Z,21.34
2022-08-24T07:01:09.991Z,21.49
2022-08-24T07:03:37.664Z,21.55
2022-08-24T07:06:20.829Z,21.68
2022-08-24T07:08:48.470Z,21.71
2022-08-24T07:11:18.042Z,21.79
2022-08-24T07:13:49.264Z,21.97
2022-08-24T07:16:21.133Z,21.99
2022-08-24T07:18:52.568Z,22.08
2022-08-24T07:21:21.567Z,22.20
2022-08-24T07:23:55.446Z,22.31
2022-08-24T07:26:25.503Z,22.40
2022-08-24T07:29:01.390Z,22.50
2022-08-24T07:31:37.795Z,22.62
2022-08-24T07:34:26.293Z,22.68
2022-08-24T07:36:54.660Z,22.79
2022-08-24T07:39:21.827Z,22.82
2022-08-24T07:42:11.505Z,22.92
2022-08-24T07:44:37.644Z,22.99
2022-08-24T07:47:27.165Z,23.06
2022-08-24T07:49:52.936Z,23.25
2022-08-24T07:52:20.471Z,23.33
2022-08-24T07:54:47.731Z,23.47
2022-08-24T07:57:15.706Z,23.44
2022-08-24T07:59:43.024Z,23.59
2022-08-24T08:02:11.691Z,23.86
2022-08-24T08:04:41.873Z,24.03
2022-08-24T08:07:09.745Z,24.11
2022-08-24T08:09:38.468Z,24.19
2022-08-24T08:12:07.117Z,24.35
2022-08-24T08:14:35.665Z,24.48
2022-08-24T08:17:02.883Z,24.42
2022-08-24T08:19:30.320Z,24.51
2022-08-24T08:22:16.303Z,24.70
2022-08-24T08:25:08.025Z,24.98
2022-08-24T08:27:36.176Z,24.99
2022-08-24T08:30:06.397Z,24.87
2022-08-24T08:32:34.493Z,24.91
2022-08-24T08:35:02.770Z,24.92
2022-08-24T08:37:31.955Z,25.22
2022-08-24T08:39:59.617Z,25.18
2022-08-24T08:42:47.996Z,25.16
2022-08-24T08:45:25.509Z,25.45
2022-08-24T08:48:29.604Z,25.49
2022-08-24T08:51:39.386Z,25.59
2022-08-24T08:54:44.392Z,25.69
2022-08-24T08:57:32.612Z,25.66
2022-08-24T09:00:15.738Z,25.64
2022-08-24T09:03:17.484Z,25.84
2022-08-24T09:06:18.835Z,25.92
2022-08-24T09:09:13.200Z,26.19
2022-08-24T09:12:13.322Z,25.98
2022-08-24T09:14:56.082Z,25.98
2022-08-24T09:17:41.337Z,26.09
2022-08-24T09:20:56.306Z,26.12
2022-08-24T09:23:32.779Z,26.20
2022-08-24T09:26:19.114Z,26.53
2022-08-24T09:29:16.497Z,26.74
2022-08-24T09:31:57.415Z,26.64
2022-08-24T09:34:51.362Z,26.75
2022-08-24T09:37:46.570Z,26.74
2022-08-24T09:40:59.362Z,26.80
2022-08-24T09:43:44.156Z,27.03
2022-08-24T09:46:27.345Z,27.04
2022-08-24T09:49:30.326Z,27.04
2022-08-24T09:52:18.557Z,27.22
2022-08-24T09:55:17.867Z,27.06
2022-08-24T09:58:00.562Z,27.17
2022-08-24T10:00:37.639Z,27.15
2022-08-24T10:03:17.318Z,27.64
2022-08-24T10:06:10.961Z,27.52
2022-08-24T10:09:24.316Z,27.54
2022-08-24T10:12:09.720Z,27.95
2022-08-24T10:14:49.040Z,27.92
2022-08-24T10:17:28.585Z,27.86
2022-08-24T10:20:16.720Z,27.86
2022-08-24T10:23:34.761Z,27.89
2022-08-24T10:26:14.205Z,28.15
2022-08-24T10:28:59.991Z,28.07
2022-08-24T10:31:35.473Z,28.22
2022-08-24T10:34:30.284Z,28.40
2022-08-24T10:37:19.991Z,28.46
2022-08-24T10:40:09.619Z,28.80
2022-08-24T10:43:03.078Z,28.70
2022-08-24T10:45:43.118Z,28.80
2022-08-24T10:48:52.596Z,28.96
2022-08-24T10:51:44.803Z,28.71
2022-08-24T10:54:13.227Z,28.91
2022-08-24T10:57:01.920Z,28.81
2022-08-24T10:59:33.709Z,28.49
2022-08-24T11:02:06.674Z,28.84
2022-08-24T11:04:40.601Z,28.97
2022-08-24T11:07:17.615Z,28.83
2022-08-24T11:09:53.245Z,28.79
2022-08-24T11:12:46.460Z,28.87
2022-08-24T11:15:28.104Z,28.96
2022-08-24T11:17:58.495Z,28.90
2022-08-24T11:20:47.205Z,28.62
2022-08-24T11:23:29.704Z,28.35
2022-08-24T11:26:01.908Z,28.81
2022-08-24T11:28:38.931Z,28.79
2022-08-24T11:31:12.598Z,28.68
2022-08-24T11:33:53.008Z,28.83
2022-08-24T11:36:25.829Z,28.66
2022-08-24T11:39:25.927Z,28.58
2022-08-24T11:41:59.295Z,28.59
2022-08-24T11:44:54.377Z,28.55
2022-08-24T11:47:39.548Z,28.23
2022-08-24T11:50:25.337Z,28.75
2022-08-24T11:53:30.169Z,28.85
2022-08-24T11:56:25.498Z,28.94
2022-08-24T11:59:11.006Z,29.33
2022-08-24T12:02:11.047Z,29.75
2022-08-24T12:05:05.531Z,29.21
2022-08-24T12:08:10.879Z,29.71
2022-08-24T12:11:01.970Z,29.77
2022-08-24T12:13:47.117Z,29.79
2022-08-24T12:16:35.544Z,30.32
2022-08-24T12:19:10.191Z,30.37
2022-08-24T12:21:40.900Z,30.26
2022-08-24T12:24:33.379Z,30.26
2022-08-24T12:27:18.693Z,30.11
2022-08-24T12:30:11.441Z,30.23
2022-08-24T12:32:49.835Z,30.12
2022-08-24T12:35:32.545Z,30.26
2022-08-24T12:38:16.273Z,30.40
2022-08-24T12:40:52.530Z,30.53
2022-08-24T12:43:25.637Z,30.72
2022-08-24T12:45:56.320Z,30.57
2022-08-24T12:48:34.816Z,30.93
2022-08-24T12:51:14.412Z,30.94
2022-08-24T12:54:04.780Z,31.07
2022-08-24T12:56:43.004Z,31.26
2022-08-24T12:59:21.004Z,31.59
2022-08-24T13:02:02.963Z,31.22
2022-08-24T13:04:48.533Z,31.17
2022-08-24T13:07:18.606Z,31.33
2022-08-24T13:10:06.389Z,31.33
2022-08-24T13:12:43.513Z,30.89
2022-08-24T13:15:22.777Z,30.19
2022-08-24T13:18:20.054Z,30.11
2022-08-24T13:20:50.169Z,30.74
2022-08-24T13:23:24.737Z,31.12
2022-08-24T13:26:28.777Z,31.09
2022-08-24T13:29:00.386Z,31.52
2022-08-24T13:31:38.391Z,31.39
2022-08-24T13:34:15.130Z,31.55
2022-08-24T13:37:14.325Z,31.48
2022-08-24T13:39:59.961Z,31.25
2022-08-24T13:42:45.094Z,30.96
2022-08-24T13:45:56.872Z,31.45
2022-08-24T13:48:34.583Z,31.42
2022-08-24T13:51:38.269Z,31.44
2022-08-24T13:54:34.352Z,31.03
2022-08-24T13:57:08.131Z,31.04
2022-08-24T14:00:13.017Z,31.79
2022-08-24T14:02:57.731Z,31.90
2022-08-24T14:05:47.356Z,32.05
2022-08-24T14:08:44.572Z,32.06
2022-08-24T14:11:35.372Z,32.06
2022-08-24T14:14:23.770Z,32.03
2022-08-24T14:17:35.963Z,31.06
2022-08-24T14:20:22.378Z,31.38
2022-08-24T14:23:00.781Z,31.71
2022-08-24T14:25:33.727Z,31.71
2022-08-24T14:28:01.298Z,30.99
2022-08-24T14:30:29.021Z,31.00
2022-08-24T14:32:59.604Z,31.49
2022-08-24T14:35:40.190Z,31.11
2022-08-24T14:38:20.241Z,34.85
2022-08-24T14:40:57.693Z,41.63
2022-08-24T14:43:34.931Z,41.31
2022-08-24T14:46:41.250Z,45.70
2022-08-24T14:49:18.180Z,48.79
2022-08-24T14:52:03.442Z,49.11
2022-08-24T14:54:59.060Z,48.42
2022-08-24T14:57:40.655Z,47.64
2022-08-24T15:00:24.441Z,45.00
2022-08-24T15:02:51.600Z,47.21
2022-08-24T15:05:36.223Z,45.72
2022-08-24T15:08:08.903Z,48.07
2022-08-24T15:10:58.813Z,47.68
2022-08-24T15:13:35.716Z,47.35
2022-08-24T15:16:23.016Z,47.36
2022-08-24T15:19:02.340Z,48.95
2022-08-24T15:21:56.913Z,51.57
2022-08-24T15:24:42.895Z,51.31
2022-08-24T15:27:42.124Z,49.40
2022-08-24T15:30:19.319Z,49.02
2022-08-24T15:32:54.090Z,49.78
2022-08-24T15:35:32.123Z,49.44
2022-08-24T15:38:16.546Z,49.56
2022-08-24T15:40:46.693Z,49.39
2022-08-24T15:43:14.381Z,49.21
2022-08-24T15:45:51.282Z,50.21
2022-08-24T15:48:24.469Z,50.77
2022-08-24T15:50:53.973Z,44.99
2022-08-24T15:53:33.168Z,46.07
2022-08-24T15:56:20.192Z,49.43
2022-08-24T15:58:48.825Z,49.21
2022-08-24T16:01:34.293Z,48.81
2022-08-24T16:04:04.870Z,47.55
2022-08-24T16:06:31.984Z,50.34
2022-08-24T16:09:12.186Z,49.90
2022-08-24T16:11:49.050Z,48.90
2022-08-24T16:14:29.909Z,48.80
2022-08-24T16:16:58.962Z,50.84
2022-08-24T16:19:33.213Z,50.95
2022-08-24T16:22:04.851Z,49.22
2022-08-24T16:24:31.952Z,50.13
2022-08-24T16:27:00.708Z,50.21
2022-08-24T16:29:37.886Z,49.76
2022-08-24T16:32:21.206Z,50.57
2022-08-24T16:35:10.945Z,48.76
2022-08-24T16:37:39.267Z,48.53
2022-08-24T16:40:08.462Z,48.02
2022-08-24T16:42:36.903Z,47.29
2022-08-24T16:45:05.809Z,47.51
2022-08-24T16:47:32.994Z,46.28
2022-08-24T16:50:00.132Z,46.40
2022-08-24T16:52:27.422Z,47.15
2022-08-24T16:54:54.703Z,46.52
2022-08-24T16:57:24.727Z,47.81
2022-08-24T16:59:52.611Z,46.80
2022-08-24T17:02:21.867Z,45.64
2022-08-24T17:04:49.910Z,45.91
2022-08-24T17:07:22.220Z,46.28
2022-08-24T17:09:49.503Z,44.80
2022-08-24T17:12:16.623Z,44.57
2022-08-24T17:14:44.337Z,43.87
2022-08-24T17:17:13.440Z,43.72
2022-08-24T17:19:43.381Z,43.45
2022-08-24T17:22:14.323Z,42.89
2022-08-24T17:24:44.921Z,41.27
2022-08-24T17:27:13.772Z,38.92
2022-08-24T17:29:43.448Z,38.21
2022-08-24T17:32:10.932Z,36.41
2022-08-24T17:34:39.074Z,35.12
2022-08-24T17:37:07.499Z,34.97
2022-08-24T17:39:34.854Z,35.25
2022-08-24T17:42:03.689Z,35.09
2022-08-24T17:44:33.420Z,34.92
2022-08-24T17:47:03.681Z,34.22
2022-08-24T17:49:32.149Z,34.04
2022-08-24T17:51:59.515Z,33.61
2022-08-24T17:54:28.327Z,33.57
2022-08-24T17:56:56.074Z,32.89
2022-08-24T17:59:29.568Z,32.81
2022-08-24T18:02:00.490Z,32.17
2022-08-24T18:04:30.447Z,31.82
2022-08-24T18:07:01.054Z,31.96
2022-08-24T18:09:35.157Z,31.64
2022-08-24T18:12:05.976Z,31.84
2022-08-24T18:14:34.525Z,31.94
2022-08-24T18:17:04.475Z,31.49
2022-08-24T18:19:33.511Z,31.50
2022-08-24T18:22:01.429Z,31.53
2022-08-24T18:24:32.338Z,31.49
2022-08-24T18:27:03.270Z,31.04
2022-08-24T18:29:40.858Z,31.10
2022-08-24T18:32:11.733Z,30.69
2022-08-24T18:34:40.160Z,30.72
2022-08-24T18:37:07.348Z,30.32
2022-08-24T18:39:35.209Z,30.57
2022-08-24T18:42:05.665Z,30.19
2022-08-24T18:44:33.319Z,30.12
2022-08-24T18:47:00.470Z,30.11
2022-08-24T18:49:28.068Z,30.07
2022-08-24T18:51:55.573Z,30.28
2022-08-24T18:54:25.949Z,30.14
2022-08-24T18:56:53.285Z,29.94
2022-08-24T18:59:21.149Z,29.85
2022-08-24T19:02:09.523Z,29.64
2022-08-24T19:04:39.708Z,28.63
2022-08-24T19:07:06.746Z,28.84
2022-08-24T19:09:34.570Z,28.66
2022-08-24T19:12:03.955Z,28.55
2022-08-24T19:14:31.561Z,28.40
2022-08-24T19:16:58.732Z,27.95
2022-08-24T19:19:25.952Z,28.17
2022-08-24T19:21:53.532Z,27.97
2022-08-24T19:24:24.991Z,28.08
2022-08-24T19:26:52.879Z,27.90
2022-08-24T19:29:38.813Z,27.86
2022-08-24T19:32:09.994Z,28.14
2022-08-24T19:34:41.294Z,28.04
2022-08-24T19:37:09.907Z,27.52
2022-08-24T19:39:36.955Z,27.17
2022-08-24T19:42:04.876Z,27.23
2022-08-24T19:44:51.794Z,27.22
2022-08-24T19:47:19.206Z,26.82
2022-08-24T19:49:46.312Z,27.09
2022-08-24T19:52:14.640Z,27.04
2022-08-24T19:54:44.581Z,27.02
2022-08-24T19:57:33.647Z,26.94
2022-08-24T20:00:08.311Z,26.61
2022-08-24T20:02:36.046Z,26.48
2022-08-24T20:05:03.228Z,26.69
2022-08-24T20:07:30.370Z,26.70
2022-08-24T20:09:57.760Z,26.55
2022-08-24T20:12:26.107Z,26.33
2022-08-24T20:14:53.159Z,26.17
2022-08-24T20:17:20.576Z,26.28
2022-08-24T20:19:53.161Z,26.31
2022-08-24T20:22:20.293Z,26.17
2022-08-24T20:24:48.066Z,26.09
2022-08-24T20:27:19.032Z,26.14
2022-08-24T20:29:46.184Z,26.21
2022-08-24T20:32:13.312Z,26.08
2022-08-24T20:34:40.937Z,26.18
2022-08-24T20:37:08.083Z,25.97
2022-08-24T20:39:35.287Z,26.15
2022-08-24T20:42:02.462Z,26.08
2022-08-24T20:44:29.616Z,26.22
2022-08-24T20:46:56.847Z,25.90
2022-08-24T20:49:26.933Z,26.10
2022-08-24T20:51:54.102Z,25.84
2022-08-24T20:54:21.241Z,25.82
2022-08-24T20:56:49.368Z,25.83
2022-08-24T20:59:16.969Z,25.58
2022-08-24T21:01:44.829Z,25.91
2022-08-24T21:04:12.187Z,25.76
2022-08-24T21:06:41.590Z,25.79
2022-08-24T21:09:10.396Z,25.66
2022-08-24T21:11:42.977Z,25.53
2022-08-24T21:14:10.071Z,25.48
2022-08-24T21:16:39.964Z,25.53
2022-08-24T21:19:12.012Z,25.31
2022-08-24T21:21:42.304Z,25.61
2022-08-24T21:24:10.002Z,25.62
2022-08-24T21:26:37.613Z,25.51
2022-08-24T21:29:06.609Z,25.36
2022-08-24T21:31:33.755Z,25.14
2022-08-24T21:34:19.107Z,25.05
2022-08-24T21:36:48.093Z,25.17
2022-08-24T21:39:15.289Z,24.94
2022-08-24T21:41:42.424Z,25.30
2022-08-24T21:44:09.602Z,25.02
2022-08-24T21:46:38.593Z,24.98
2022-08-24T21:49:06.684Z,24.96
2022-08-24T21:51:33.755Z,24.95
2022-08-24T21:54:01.419Z,25.06
2022-08-24T21:56:31.915Z,25.19
2022-08-24T21:58:59.442Z,25.18
2022-08-24T22:01:27.169Z,24.88
2022-08-24T22:03:54.992Z,24.75
2022-08-24T22:06:22.220Z,25.07
2022-08-24T22:08:49.912Z,24.96
2022-08-24T22:11:19.758Z,24.57
2022-08-24T22:13:47.625Z,24.80
2022-08-24T22:16:14.849Z,24.90
2022-08-24T22:18:42.046Z,24.97
2022-08-24T22:21:12.030Z,25.07
2022-08-24T22:23:40.858Z,24.65
2022-08-24T22:26:08.221Z,24.73
2022-08-24T22:28:37.963Z,24.65
2022-08-24T22:31:36.805Z,24.65
2022-08-24T22:34:15.364Z,24.55
2022-08-24T22:36:47.535Z,24.61
2022-08-24T22:39:14.833Z,24.55
2022-08-24T22:41:42.443Z,24.58
2022-08-24T22:44:21.560Z,24.55
2022-08-24T22:46:50.055Z,24.62
2022-08-24T22:49:18.930Z,24.53
2022-08-24T22:51:46.255Z,24.40
2022-08-24T22:54:13.971Z,24.49
2022-08-24T22:56:47.622Z,24.25
2022-08-24T22:59:27.036Z,24.31
2022-08-24T23:01:56.337Z,24.48
2022-08-24T23:04:30.231Z,24.39
2022-08-24T23:06:58.175Z,24.14
2022-08-24T23:09:25.354Z,23.60
2022-08-24T23:11:52.726Z,22.95
2022-08-24T23:14:21.235Z,23.44
2022-08-24T23:16:49.247Z,23.49
2022-08-24T23:19:41.127Z,23.57
2022-08-24T23:22:11.939Z,23.52
2022-08-24T23:24:40.528Z,23.53
2022-08-24T23:27:09.671Z,23.56
2022-08-24T23:29:37.315Z,23.32
2022-08-24T23:32:06.320Z,23.23
2022-08-24T23:34:34.318Z,23.10
2022-08-24T23:37:01.563Z,23.40
2022-08-24T23:39:28.941Z,23.45
2022-08-24T23:41:56.257Z,23.50
2022-08-24T23:44:25.970Z,23.03
2022-08-24T23:46:54.321Z,22.79
2022-08-24T23:49:23.076Z,22.71
2022-08-24T23:51:50.928Z,22.93
2022-08-24T23:54:21.529Z,22.97
2022-08-24T23:56:49.737Z,22.88
2022-08-24T23:59:19.833Z,23.19
